CheckWX is a tool to help pilots better visualize weather data.  It is not intended as a substitute for an official pre-flight weather briefing.

08:55:35 UTC

KPDX TAF
Portland International Airport
Portland, Oregon, USA
KPDX 280528Z 2806/2906 29004KT P6SM SCT250 FM281400 30003KT 1SM BR OVC004 FM281700 29003KT 5SM BR BKN005 FM281800 26004KT P6SM BKN250 FM282200 24006KT P6SM SCT040 BKN200 FM290100 24011KT P6SM BKN045 BKN100

Feb-28@
06:00 UTC

Feb-28 @ 06:00 UTC

Feb-28@
14:00 UTC

Feb-28 @ 14:00 UTC

KPDX 280528Z 2806/2906 29004KT P6SM SCT250
Wind
  • 290° at 4 KTS
Cloud Levels
  • Scattered at 25,000' AGL

Feb-28@
14:00 UTC

Feb-28 @ 14:00 UTC

Feb-28@
17:00 UTC

Feb-28 @ 17:00 UTC

FM281400 30003KT 1SM BR OVC004

From

From Standard forecast or significant change

Wind
  • 300° at 3 KTS
Conditions
Mist
Cloud Levels
  • Overcast at 400' AGL

Feb-28@
17:00 UTC

Feb-28 @ 17:00 UTC

Feb-28@
18:00 UTC

Feb-28 @ 18:00 UTC

FM281700 29003KT 5SM BR BKN005

From

From Standard forecast or significant change

Wind
  • 290° at 3 KTS
Conditions
Mist
Cloud Levels
  • Broken at 500' AGL

Feb-28@
18:00 UTC

Feb-28 @ 18:00 UTC

Feb-28@
22:00 UTC

Feb-28 @ 22:00 UTC

FM281800 26004KT P6SM BKN250

From

From Standard forecast or significant change

Wind
  • 260° at 4 KTS
Cloud Levels
  • Broken at 25,000' AGL

Feb-28@
22:00 UTC

Feb-28 @ 22:00 UTC

Feb-29@
01:00 UTC

Feb-29 @ 01:00 UTC

FM282200 24006KT P6SM SCT040 BKN200

From

From Standard forecast or significant change

Wind
  • 240° at 6 KTS
Cloud Levels
  • Scattered at 4,000' AGL
  • Broken at 20,000' AGL

Feb-29@
01:00 UTC

Feb-29 @ 01:00 UTC

Feb-29@
06:00 UTC

Feb-29 @ 06:00 UTC

FM290100 24011KT P6SM BKN045 BKN100

From

From Standard forecast or significant change

Wind
  • 240° at 11 KTS
Cloud Levels
  • Broken at 4,500' AGL
  • Broken at 10,000' AGL